sensor_id;sensor_type;location;lat;lon;timestamp;P1;durP1;ratioP1;P2;durP2;ratioP2
42840;SDS011;28491;46.898;7.660;2023-02-28T00:00:00;12.90;;;8.75;;
42840;SDS011;28491;46.898;7.660;2023-02-28T00:02:25;11.02;;;8.02;;
42840;SDS011;28491;46.898;7.660;2023-02-28T00:04:51;10.55;;;7.93;;
42840;SDS011;28491;46.898;7.660;2023-02-28T00:07:25;13.20;;;9.05;;
42840;SDS011;28491;46.898;7.660;2023-02-28T00:09:52;13.45;;;8.52;;
42840;SDS011;28491;46.898;7.660;2023-02-28T00:12:18;12.02;;;8.77;;
42840;SDS011;28491;46.898;7.660;2023-02-28T00:14:43;13.05;;;9.23;;
42840;SDS011;28491;46.898;7.660;2023-02-28T00:17:09;17.10;;;8.82;;
42840;SDS011;28491;46.898;7.660;2023-02-28T00:19:34;10.90;;;7.60;;
42840;SDS011;28491;46.898;7.660;2023-02-28T00:22:00;15.18;;;9.85;;
42840;SDS011;28491;46.898;7.660;2023-02-28T00:24:25;11.45;;;8.25;;
42840;SDS011;28491;46.898;7.660;2023-02-28T00:26:51;13.73;;;10.57;;
42840;SDS011;28491;46.898;7.660;2023-02-28T00:29:16;11.73;;;9.00;;
42840;SDS011;28491;46.898;7.660;2023-02-28T00:31:42;13.80;;;8.80;;
42840;SDS011;28491;46.898;7.660;2023-02-28T00:34:07;13.48;;;8.85;;
42840;SDS011;28491;46.898;7.660;2023-02-28T00:36:33;18.20;;;9.75;;
42840;SDS011;28491;46.898;7.660;2023-02-28T00:38:58;11.85;;;8.15;;
42840;SDS011;28491;46.898;7.660;2023-02-28T00:41:24;13.02;;;8.50;;
42840;SDS011;28491;46.898;7.660;2023-02-28T00:43:49;12.35;;;8.27;;
42840;SDS011;28491;46.898;7.660;2023-02-28T00:46:15;11.93;;;8.90;;
42840;SDS011;28491;46.898;7.660;2023-02-28T00:48:40;12.63;;;9.73;;
42840;SDS011;28491;46.898;7.660;2023-02-28T00:51:06;14.00;;;9.18;;
42840;SDS011;28491;46.898;7.660;2023-02-28T00:53:32;14.85;;;9.88;;
42840;SDS011;28491;46.898;7.660;2023-02-28T00:55:58;15.25;;;9.10;;
42840;SDS011;28491;46.898;7.660;2023-02-28T00:58:24;12.48;;;9.15;;
42840;SDS011;28491;46.898;7.660;2023-02-28T01:00:50;15.82;;;9.15;;
42840;SDS011;28491;46.898;7.660;2023-02-28T01:03:17;16.55;;;9.52;;
42840;SDS011;28491;46.898;7.660;2023-02-28T01:05:44;11.27;;;8.77;;
42840;SDS011;28491;46.898;7.660;2023-02-28T01:08:10;14.60;;;9.15;;
42840;SDS011;28491;46.898;7.660;2023-02-28T01:10:35;14.90;;;8.95;;
42840;SDS011;28491;46.898;7.660;2023-02-28T01:13:01;13.88;;;9.77;;
42840;SDS011;28491;46.898;7.660;2023-02-28T01:15:28;12.35;;;9.25;;
42840;SDS011;28491;46.898;7.660;2023-02-28T01:17:53;13.98;;;9.27;;
42840;SDS011;28491;46.898;7.660;2023-02-28T01:20:19;14.00;;;9.15;;
42840;SDS011;28491;46.898;7.660;2023-02-28T01:22:45;19.13;;;9.48;;
42840;SDS011;28491;46.898;7.660;2023-02-28T01:25:11;15.68;;;9.35;;
42840;SDS011;28491;46.898;7.660;2023-02-28T01:27:37;14.10;;;9.13;;
42840;SDS011;28491;46.898;7.660;2023-02-28T01:30:04;20.33;;;9.10;;
42840;SDS011;28491;46.898;7.660;2023-02-28T01:32:31;15.50;;;9.77;;
42840;SDS011;28491;46.898;7.660;2023-02-28T01:34:56;14.20;;;10.20;;
42840;SDS011;28491;46.898;7.660;2023-02-28T01:37:22;15.90;;;10.13;;
42840;SDS011;28491;46.898;7.660;2023-02-28T01:39:47;12.73;;;8.88;;
42840;SDS011;28491;46.898;7.660;2023-02-28T01:42:13;13.93;;;10.07;;
42840;SDS011;28491;46.898;7.660;2023-02-28T01:44:58;14.35;;;9.43;;
42840;SDS011;28491;46.898;7.660;2023-02-28T01:47:55;13.05;;;8.73;;
42840;SDS011;28491;46.898;7.660;2023-02-28T01:50:25;13.82;;;8.93;;
42840;SDS011;28491;46.898;7.660;2023-02-28T01:52:53;13.52;;;9.15;;
42840;SDS011;28491;46.898;7.660;2023-02-28T01:55:22;14.55;;;10.20;;
42840;SDS011;28491;46.898;7.660;2023-02-28T01:57:54;15.50;;;9.52;;
42840;SDS011;28491;46.898;7.660;2023-02-28T02:00:23;12.85;;;8.70;;
42840;SDS011;28491;46.898;7.660;2023-02-28T02:02:53;14.52;;;9.13;;
42840;SDS011;28491;46.898;7.660;2023-02-28T02:05:21;14.45;;;11.13;;
42840;SDS011;28491;46.898;7.660;2023-02-28T02:07:51;13.77;;;9.80;;
42840;SDS011;28491;46.898;7.660;2023-02-28T02:11:05;15.63;;;10.45;;
42840;SDS011;28491;46.898;7.660;2023-02-28T02:13:22;13.13;;;10.73;;
42840;SDS011;28491;46.898;7.660;2023-02-28T02:27:38;16.35;;;9.85;;
42840;SDS011;28491;46.898;7.660;2023-02-28T02:30:36;15.80;;;11.00;;
42840;SDS011;28491;46.898;7.660;2023-02-28T02:33:29;14.93;;;9.55;;
42840;SDS011;28491;46.898;7.660;2023-02-28T02:36:27;13.45;;;9.45;;
42840;SDS011;28491;46.898;7.660;2023-02-28T02:41:39;16.90;;;10.98;;
42840;SDS011;28491;46.898;7.660;2023-02-28T02:46:55;17.27;;;11.68;;
42840;SDS011;28491;46.898;7.660;2023-02-28T02:49:28;15.65;;;11.05;;
42840;SDS011;28491;46.898;7.660;2023-02-28T02:51:56;16.73;;;10.10;;
42840;SDS011;28491;46.898;7.660;2023-02-28T02:54:36;17.40;;;10.88;;
42840;SDS011;28491;46.898;7.660;2023-02-28T02:57:08;12.80;;;9.52;;
42840;SDS011;28491;46.898;7.660;2023-02-28T02:59:47;17.08;;;10.77;;
42840;SDS011;28491;46.898;7.660;2023-02-28T03:02:15;18.02;;;10.57;;
42840;SDS011;28491;46.898;7.660;2023-02-28T03:04:43;15.60;;;9.52;;
42840;SDS011;28491;46.898;7.660;2023-02-28T03:07:13;17.38;;;12.27;;
42840;SDS011;28491;46.898;7.660;2023-02-28T03:09:39;14.73;;;10.10;;
42840;SDS011;28491;46.898;7.660;2023-02-28T03:12:04;19.23;;;10.88;;
42840;SDS011;28491;46.898;7.660;2023-02-28T03:17:23;15.85;;;11.13;;
42840;SDS011;28491;46.898;7.660;2023-02-28T03:33:20;18.05;;;11.70;;
42840;SDS011;28491;46.898;7.660;2023-02-28T03:35:57;21.77;;;12.70;;
42840;SDS011;28491;46.898;7.660;2023-02-28T03:41:05;15.90;;;10.57;;
42840;SDS011;28491;46.898;7.660;2023-02-28T03:43:38;18.95;;;11.38;;
42840;SDS011;28491;46.898;7.660;2023-02-28T03:46:09;13.98;;;10.38;;
42840;SDS011;28491;46.898;7.660;2023-02-28T03:51:09;17.58;;;12.13;;
42840;SDS011;28491;46.898;7.660;2023-02-28T03:53:42;16.27;;;11.88;;
42840;SDS011;28491;46.898;7.660;2023-02-28T03:56:19;16.83;;;11.18;;
42840;SDS011;28491;46.898;7.660;2023-02-28T03:58:57;13.40;;;10.20;;
42840;SDS011;28491;46.898;7.660;2023-02-28T04:04:06;16.65;;;10.45;;
42840;SDS011;28491;46.898;7.660;2023-02-28T04:06:32;20.55;;;11.25;;
42840;SDS011;28491;46.898;7.660;2023-02-28T04:08:58;17.40;;;11.30;;
42840;SDS011;28491;46.898;7.660;2023-02-28T04:14:02;18.17;;;11.25;;
42840;SDS011;28491;46.898;7.660;2023-02-28T04:16:29;18.85;;;11.63;;
42840;SDS011;28491;46.898;7.660;2023-02-28T04:18:59;16.33;;;10.75;;
42840;SDS011;28491;46.898;7.660;2023-02-28T04:21:34;18.50;;;11.27;;
42840;SDS011;28491;46.898;7.660;2023-02-28T04:24:05;15.88;;;10.95;;
42840;SDS011;28491;46.898;7.660;2023-02-28T04:26:32;19.63;;;11.68;;
42840;SDS011;28491;46.898;7.660;2023-02-28T04:28:59;16.75;;;11.80;;
42840;SDS011;28491;46.898;7.660;2023-02-28T04:31:25;19.63;;;11.90;;
42840;SDS011;28491;46.898;7.660;2023-02-28T04:33:51;17.52;;;11.32;;
42840;SDS011;28491;46.898;7.660;2023-02-28T04:36:17;17.08;;;11.60;;
42840;SDS011;28491;46.898;7.660;2023-02-28T04:38:43;17.73;;;13.02;;
42840;SDS011;28491;46.898;7.660;2023-02-28T04:41:10;19.02;;;12.18;;
42840;SDS011;28491;46.898;7.660;2023-02-28T04:43:35;19.65;;;11.77;;
42840;SDS011;28491;46.898;7.660;2023-02-28T04:46:02;20.33;;;12.38;;
42840;SDS011;28491;46.898;7.660;2023-02-28T04:48:29;17.90;;;11.95;;
42840;SDS011;28491;46.898;7.660;2023-02-28T04:50:59;16.77;;;10.95;;
42840;SDS011;28491;46.898;7.660;2023-02-28T04:53:26;21.85;;;12.82;;
42840;SDS011;28491;46.898;7.660;2023-02-28T04:55:53;20.55;;;11.20;;
42840;SDS011;28491;46.898;7.660;2023-02-28T04:58:20;20.95;;;12.40;;
42840;SDS011;28491;46.898;7.660;2023-02-28T05:00:47;21.15;;;14.52;;
42840;SDS011;28491;46.898;7.660;2023-02-28T05:03:13;17.35;;;11.02;;
42840;SDS011;28491;46.898;7.660;2023-02-28T05:05:39;16.40;;;11.30;;
42840;SDS011;28491;46.898;7.660;2023-02-28T05:08:04;21.60;;;12.13;;
42840;SDS011;28491;46.898;7.660;2023-02-28T05:10:30;18.58;;;12.13;;
42840;SDS011;28491;46.898;7.660;2023-02-28T05:12:56;16.73;;;11.20;;
42840;SDS011;28491;46.898;7.660;2023-02-28T05:15:21;19.13;;;12.98;;
42840;SDS011;28491;46.898;7.660;2023-02-28T05:17:47;19.60;;;12.48;;
42840;SDS011;28491;46.898;7.660;2023-02-28T05:20:12;18.17;;;11.43;;
42840;SDS011;28491;46.898;7.660;2023-02-28T05:22:38;16.75;;;11.68;;
42840;SDS011;28491;46.898;7.660;2023-02-28T05:25:04;17.17;;;12.90;;
42840;SDS011;28491;46.898;7.660;2023-02-28T05:27:30;19.40;;;12.82;;
42840;SDS011;28491;46.898;7.660;2023-02-28T05:29:56;22.10;;;12.23;;
42840;SDS011;28491;46.898;7.660;2023-02-28T05:32:21;22.10;;;11.00;;
42840;SDS011;28491;46.898;7.660;2023-02-28T05:34:47;23.27;;;12.25;;
42840;SDS011;28491;46.898;7.660;2023-02-28T05:37:13;18.52;;;12.38;;
42840;SDS011;28491;46.898;7.660;2023-02-28T05:39:40;20.77;;;13.00;;
42840;SDS011;28491;46.898;7.660;2023-02-28T05:42:06;23.83;;;14.27;;
42840;SDS011;28491;46.898;7.660;2023-02-28T05:44:32;20.65;;;12.48;;
42840;SDS011;28491;46.898;7.660;2023-02-28T05:46:58;19.42;;;11.70;;
42840;SDS011;28491;46.898;7.660;2023-02-28T05:49:24;18.67;;;11.52;;
42840;SDS011;28491;46.898;7.660;2023-02-28T05:51:49;18.90;;;12.25;;
42840;SDS011;28491;46.898;7.660;2023-02-28T05:54:15;18.88;;;12.30;;
42840;SDS011;28491;46.898;7.660;2023-02-28T05:56:40;20.55;;;12.85;;
42840;SDS011;28491;46.898;7.660;2023-02-28T05:59:08;16.95;;;11.05;;
42840;SDS011;28491;46.898;7.660;2023-02-28T06:01:36;18.70;;;11.40;;
42840;SDS011;28491;46.898;7.660;2023-02-28T06:04:05;19.75;;;11.32;;
42840;SDS011;28491;46.898;7.660;2023-02-28T06:06:32;18.48;;;11.25;;
42840;SDS011;28491;46.898;7.660;2023-02-28T06:11:28;16.88;;;11.50;;
42840;SDS011;28491;46.898;7.660;2023-02-28T06:13:54;19.75;;;12.02;;
42840;SDS011;28491;46.898;7.660;2023-02-28T06:16:24;19.25;;;11.02;;
42840;SDS011;28491;46.898;7.660;2023-02-28T06:18:51;16.73;;;11.35;;
42840;SDS011;28491;46.898;7.660;2023-02-28T06:21:17;17.58;;;10.43;;
42840;SDS011;28491;46.898;7.660;2023-02-28T06:23:43;20.45;;;11.18;;
42840;SDS011;28491;46.898;7.660;2023-02-28T06:26:09;17.85;;;11.80;;
42840;SDS011;28491;46.898;7.660;2023-02-28T06:28:35;17.23;;;11.68;;
42840;SDS011;28491;46.898;7.660;2023-02-28T06:31:11;17.50;;;10.65;;
42840;SDS011;28491;46.898;7.660;2023-02-28T06:33:39;16.40;;;10.80;;
42840;SDS011;28491;46.898;7.660;2023-02-28T06:36:06;15.77;;;10.27;;
42840;SDS011;28491;46.898;7.660;2023-02-28T06:38:32;15.32;;;10.02;;
42840;SDS011;28491;46.898;7.660;2023-02-28T06:40:59;16.00;;;10.80;;
42840;SDS011;28491;46.898;7.660;2023-02-28T06:43:25;15.45;;;11.00;;
42840;SDS011;28491;46.898;7.660;2023-02-28T06:45:54;18.25;;;10.65;;
42840;SDS011;28491;46.898;7.660;2023-02-28T06:48:21;18.75;;;11.38;;
42840;SDS011;28491;46.898;7.660;2023-02-28T06:50:47;15.10;;;11.07;;
42840;SDS011;28491;46.898;7.660;2023-02-28T06:53:12;15.77;;;9.57;;
42840;SDS011;28491;46.898;7.660;2023-02-28T06:55:38;15.40;;;11.05;;
42840;SDS011;28491;46.898;7.660;2023-02-28T06:58:04;17.23;;;11.95;;
42840;SDS011;28491;46.898;7.660;2023-02-28T07:00:40;19.27;;;12.70;;
42840;SDS011;28491;46.898;7.660;2023-02-28T07:03:07;19.67;;;11.93;;
42840;SDS011;28491;46.898;7.660;2023-02-28T07:05:34;18.42;;;11.98;;
42840;SDS011;28491;46.898;7.660;2023-02-28T07:08:00;17.52;;;11.27;;
42840;SDS011;28491;46.898;7.660;2023-02-28T07:10:26;19.98;;;12.68;;
42840;SDS011;28491;46.898;7.660;2023-02-28T07:12:52;18.55;;;11.10;;
42840;SDS011;28491;46.898;7.660;2023-02-28T07:15:17;18.88;;;11.65;;
42840;SDS011;28491;46.898;7.660;2023-02-28T07:17:43;20.00;;;12.38;;
42840;SDS011;28491;46.898;7.660;2023-02-28T07:20:09;22.27;;;13.05;;
42840;SDS011;28491;46.898;7.660;2023-02-28T07:22:34;21.42;;;11.80;;
42840;SDS011;28491;46.898;7.660;2023-02-28T07:25:00;18.05;;;12.13;;
42840;SDS011;28491;46.898;7.660;2023-02-28T07:27:26;22.13;;;12.05;;
42840;SDS011;28491;46.898;7.660;2023-02-28T07:29:52;20.80;;;12.57;;
42840;SDS011;28491;46.898;7.660;2023-02-28T07:32:18;19.92;;;12.63;;
42840;SDS011;28491;46.898;7.660;2023-02-28T07:34:44;15.98;;;11.65;;
42840;SDS011;28491;46.898;7.660;2023-02-28T07:37:10;19.77;;;11.80;;
42840;SDS011;28491;46.898;7.660;2023-02-28T07:39:36;19.85;;;11.25;;
42840;SDS011;28491;46.898;7.660;2023-02-28T07:42:05;18.15;;;11.68;;
42840;SDS011;28491;46.898;7.660;2023-02-28T07:44:31;19.75;;;12.98;;
42840;SDS011;28491;46.898;7.660;2023-02-28T07:46:57;18.17;;;13.07;;
42840;SDS011;28491;46.898;7.660;2023-02-28T07:49:22;18.90;;;12.95;;
42840;SDS011;28491;46.898;7.660;2023-02-28T07:51:48;19.73;;;12.82;;
42840;SDS011;28491;46.898;7.660;2023-02-28T07:54:13;20.10;;;11.98;;
42840;SDS011;28491;46.898;7.660;2023-02-28T07:56:39;22.33;;;13.27;;
42840;SDS011;28491;46.898;7.660;2023-02-28T07:59:04;16.60;;;11.82;;
42840;SDS011;28491;46.898;7.660;2023-02-28T08:01:30;16.95;;;11.48;;
42840;SDS011;28491;46.898;7.660;2023-02-28T08:03:55;20.30;;;13.25;;
42840;SDS011;28491;46.898;7.660;2023-02-28T08:06:22;23.33;;;13.77;;
42840;SDS011;28491;46.898;7.660;2023-02-28T08:08:49;20.38;;;12.27;;
42840;SDS011;28491;46.898;7.660;2023-02-28T08:11:15;17.75;;;11.25;;
42840;SDS011;28491;46.898;7.660;2023-02-28T08:13:41;19.58;;;13.13;;
42840;SDS011;28491;46.898;7.660;2023-02-28T08:16:10;17.17;;;11.50;;
42840;SDS011;28491;46.898;7.660;2023-02-28T08:18:36;18.08;;;11.57;;
42840;SDS011;28491;46.898;7.660;2023-02-28T08:21:09;18.35;;;11.25;;
42840;SDS011;28491;46.898;7.660;2023-02-28T08:23:35;19.95;;;12.63;;
42840;SDS011;28491;46.898;7.660;2023-02-28T08:26:00;19.30;;;12.77;;
42840;SDS011;28491;46.898;7.660;2023-02-28T08:28:27;17.20;;;11.20;;
42840;SDS011;28491;46.898;7.660;2023-02-28T08:30:52;19.98;;;12.73;;
42840;SDS011;28491;46.898;7.660;2023-02-28T08:33:19;15.77;;;10.57;;
42840;SDS011;28491;46.898;7.660;2023-02-28T08:35:44;17.85;;;12.32;;
42840;SDS011;28491;46.898;7.660;2023-02-28T08:38:10;17.20;;;11.20;;
42840;SDS011;28491;46.898;7.660;2023-02-28T08:40:35;19.10;;;12.07;;
42840;SDS011;28491;46.898;7.660;2023-02-28T08:43:01;17.70;;;12.40;;
42840;SDS011;28491;46.898;7.660;2023-02-28T08:45:26;17.08;;;11.00;;
42840;SDS011;28491;46.898;7.660;2023-02-28T08:47:53;20.00;;;11.32;;
42840;SDS011;28491;46.898;7.660;2023-02-28T08:50:20;17.50;;;11.02;;
42840;SDS011;28491;46.898;7.660;2023-02-28T08:52:46;15.90;;;11.48;;
42840;SDS011;28491;46.898;7.660;2023-02-28T08:55:12;16.63;;;11.65;;
42840;SDS011;28491;46.898;7.660;2023-02-28T08:57:37;15.27;;;11.70;;
42840;SDS011;28491;46.898;7.660;2023-02-28T09:00:03;17.73;;;11.55;;
42840;SDS011;28491;46.898;7.660;2023-02-28T09:02:30;16.27;;;11.30;;
42840;SDS011;28491;46.898;7.660;2023-02-28T09:04:56;17.60;;;10.90;;
42840;SDS011;28491;46.898;7.660;2023-02-28T09:07:23;17.58;;;10.98;;
42840;SDS011;28491;46.898;7.660;2023-02-28T09:09:48;15.48;;;12.25;;
42840;SDS011;28491;46.898;7.660;2023-02-28T09:12:23;15.82;;;10.57;;
42840;SDS011;28491;46.898;7.660;2023-02-28T09:14:50;16.02;;;11.65;;
42840;SDS011;28491;46.898;7.660;2023-02-28T09:17:16;14.65;;;9.68;;
42840;SDS011;28491;46.898;7.660;2023-02-28T09:19:42;15.30;;;10.35;;
42840;SDS011;28491;46.898;7.660;2023-02-28T09:22:08;16.05;;;10.23;;
42840;SDS011;28491;46.898;7.660;2023-02-28T09:24:35;18.67;;;11.65;;
42840;SDS011;28491;46.898;7.660;2023-02-28T09:27:02;15.98;;;11.07;;
42840;SDS011;28491;46.898;7.660;2023-02-28T09:29:27;16.67;;;11.70;;
42840;SDS011;28491;46.898;7.660;2023-02-28T09:31:53;15.23;;;10.73;;
42840;SDS011;28491;46.898;7.660;2023-02-28T09:34:18;18.25;;;10.95;;
42840;SDS011;28491;46.898;7.660;2023-02-28T09:39:56;15.38;;;10.35;;
42840;SDS011;28491;46.898;7.660;2023-02-28T09:42:24;14.70;;;9.77;;
42840;SDS011;28491;46.898;7.660;2023-02-28T09:44:56;15.10;;;9.82;;
42840;SDS011;28491;46.898;7.660;2023-02-28T09:50:07;14.90;;;9.80;;
42840;SDS011;28491;46.898;7.660;2023-02-28T09:52:40;15.20;;;10.32;;
42840;SDS011;28491;46.898;7.660;2023-02-28T09:55:18;16.08;;;10.18;;
42840;SDS011;28491;46.898;7.660;2023-02-28T09:57:47;14.32;;;10.02;;
42840;SDS011;28491;46.898;7.660;2023-02-28T10:05:39;16.83;;;10.57;;
42840;SDS011;28491;46.898;7.660;2023-02-28T10:08:18;15.82;;;11.38;;
42840;SDS011;28491;46.898;7.660;2023-02-28T10:10:51;16.98;;;11.00;;
42840;SDS011;28491;46.898;7.660;2023-02-28T10:13:25;14.75;;;8.85;;
42840;SDS011;28491;46.898;7.660;2023-02-28T10:16:07;15.48;;;9.98;;
42840;SDS011;28491;46.898;7.660;2023-02-28T10:18:52;12.97;;;9.17;;
42840;SDS011;28491;46.898;7.660;2023-02-28T10:21:30;13.75;;;9.70;;
42840;SDS011;28491;46.898;7.660;2023-02-28T10:24:03;16.23;;;9.00;;
42840;SDS011;28491;46.898;7.660;2023-02-28T10:26:41;13.13;;;9.60;;
42840;SDS011;28491;46.898;7.660;2023-02-28T10:29:10;17.98;;;10.40;;
42840;SDS011;28491;46.898;7.660;2023-02-28T10:31:35;14.90;;;10.38;;
42840;SDS011;28491;46.898;7.660;2023-02-28T10:34:01;15.00;;;10.45;;
42840;SDS011;28491;46.898;7.660;2023-02-28T10:36:28;15.52;;;10.65;;
42840;SDS011;28491;46.898;7.660;2023-02-28T10:38:53;15.45;;;10.32;;
42840;SDS011;28491;46.898;7.660;2023-02-28T10:41:27;14.75;;;10.07;;
42840;SDS011;28491;46.898;7.660;2023-02-28T10:46:55;13.57;;;10.48;;
42840;SDS011;28491;46.898;7.660;2023-02-28T10:49:22;14.52;;;10.38;;
42840;SDS011;28491;46.898;7.660;2023-02-28T10:51:52;17.15;;;12.55;;
42840;SDS011;28491;46.898;7.660;2023-02-28T10:54:32;13.23;;;10.00;;
42840;SDS011;28491;46.898;7.660;2023-02-28T10:59:47;13.30;;;9.85;;
42840;SDS011;28491;46.898;7.660;2023-02-28T11:02:30;17.90;;;11.65;;
42840;SDS011;28491;46.898;7.660;2023-02-28T11:05:01;13.18;;;9.57;;
42840;SDS011;28491;46.898;7.660;2023-02-28T11:07:27;15.40;;;10.57;;
42840;SDS011;28491;46.898;7.660;2023-02-28T11:09:56;17.40;;;11.50;;
42840;SDS011;28491;46.898;7.660;2023-02-28T11:12:29;14.77;;;10.00;;
42840;SDS011;28491;46.898;7.660;2023-02-28T11:15:03;15.20;;;10.27;;
42840;SDS011;28491;46.898;7.660;2023-02-28T11:17:31;14.48;;;9.85;;
42840;SDS011;28491;46.898;7.660;2023-02-28T11:20:04;16.17;;;11.98;;
42840;SDS011;28491;46.898;7.660;2023-02-28T11:22:35;19.25;;;11.55;;
42840;SDS011;28491;46.898;7.660;2023-02-28T11:25:15;14.52;;;9.88;;
42840;SDS011;28491;46.898;7.660;2023-02-28T11:27:47;18.98;;;10.45;;
42840;SDS011;28491;46.898;7.660;2023-02-28T11:33:22;13.38;;;10.18;;
42840;SDS011;28491;46.898;7.660;2023-02-28T11:35:52;14.70;;;9.07;;
42840;SDS011;28491;46.898;7.660;2023-02-28T11:38:20;13.93;;;9.32;;
42840;SDS011;28491;46.898;7.660;2023-02-28T11:40:47;13.40;;;9.80;;
42840;SDS011;28491;46.898;7.660;2023-02-28T11:46:05;14.63;;;10.73;;
42840;SDS011;28491;46.898;7.660;2023-02-28T11:48:33;15.93;;;10.73;;
42840;SDS011;28491;46.898;7.660;2023-02-28T11:51:18;13.20;;;10.10;;
42840;SDS011;28491;46.898;7.660;2023-02-28T11:53:58;12.90;;;9.45;;
42840;SDS011;28491;46.898;7.660;2023-02-28T11:59:40;15.45;;;9.70;;
42840;SDS011;28491;46.898;7.660;2023-02-28T12:10:27;14.68;;;10.48;;
42840;SDS011;28491;46.898;7.660;2023-02-28T12:15:47;13.68;;;10.43;;
42840;SDS011;28491;46.898;7.660;2023-02-28T12:18:43;15.57;;;11.85;;
42840;SDS011;28491;46.898;7.660;2023-02-28T12:21:26;14.60;;;10.82;;
42840;SDS011;28491;46.898;7.660;2023-02-28T12:24:08;13.20;;;9.98;;
42840;SDS011;28491;46.898;7.660;2023-02-28T12:26:44;15.88;;;11.75;;
42840;SDS011;28491;46.898;7.660;2023-02-28T12:29:33;15.18;;;10.75;;
42840;SDS011;28491;46.898;7.660;2023-02-28T12:32:16;13.88;;;9.88;;
42840;SDS011;28491;46.898;7.660;2023-02-28T12:34:52;16.25;;;11.55;;
42840;SDS011;28491;46.898;7.660;2023-02-28T12:37:31;15.95;;;11.30;;
42840;SDS011;28491;46.898;7.660;2023-02-28T12:40:05;17.88;;;11.00;;
42840;SDS011;28491;46.898;7.660;2023-02-28T12:42:38;16.40;;;11.48;;
42840;SDS011;28491;46.898;7.660;2023-02-28T12:45:15;14.00;;;10.63;;
42840;SDS011;28491;46.898;7.660;2023-02-28T12:47:50;16.63;;;12.32;;
42840;SDS011;28491;46.898;7.660;2023-02-28T12:50:22;15.68;;;11.60;;
42840;SDS011;28491;46.898;7.660;2023-02-28T13:04:07;16.08;;;10.80;;
42840;SDS011;28491;46.898;7.660;2023-02-28T13:09:56;16.38;;;10.48;;
42840;SDS011;28491;46.898;7.660;2023-02-28T13:12:28;15.00;;;10.13;;
42840;SDS011;28491;46.898;7.660;2023-02-28T13:15:39;14.93;;;10.35;;
42840;SDS011;28491;46.898;7.660;2023-02-28T13:17:59;16.35;;;11.05;;
42840;SDS011;28491;46.898;7.660;2023-02-28T13:20:26;13.00;;;9.57;;
42840;SDS011;28491;46.898;7.660;2023-02-28T13:22:56;14.38;;;10.52;;
42840;SDS011;28491;46.898;7.660;2023-02-28T13:27:53;13.70;;;9.70;;
42840;SDS011;28491;46.898;7.660;2023-02-28T13:35:45;15.93;;;11.20;;
42840;SDS011;28491;46.898;7.660;2023-02-28T13:38:22;15.25;;;10.98;;
42840;SDS011;28491;46.898;7.660;2023-02-28T13:40:49;16.85;;;10.93;;
42840;SDS011;28491;46.898;7.660;2023-02-28T13:43:16;16.98;;;10.85;;
42840;SDS011;28491;46.898;7.660;2023-02-28T13:46:03;14.65;;;10.48;;
42840;SDS011;28491;46.898;7.660;2023-02-28T13:48:31;15.50;;;10.00;;
42840;SDS011;28491;46.898;7.660;2023-02-28T13:50:56;15.27;;;11.48;;
42840;SDS011;28491;46.898;7.660;2023-02-28T13:53:30;14.43;;;9.80;;
42840;SDS011;28491;46.898;7.660;2023-02-28T13:56:23;17.30;;;11.13;;
42840;SDS011;28491;46.898;7.660;2023-02-28T14:05:13;15.13;;;10.82;;
42840;SDS011;28491;46.898;7.660;2023-02-28T14:07:54;15.05;;;11.10;;
42840;SDS011;28491;46.898;7.660;2023-02-28T14:10:42;15.35;;;10.57;;
42840;SDS011;28491;46.898;7.660;2023-02-28T14:16:05;16.65;;;11.80;;
42840;SDS011;28491;46.898;7.660;2023-02-28T14:18:35;16.38;;;10.63;;
42840;SDS011;28491;46.898;7.660;2023-02-28T14:21:08;14.82;;;10.80;;
42840;SDS011;28491;46.898;7.660;2023-02-28T14:29:00;17.25;;;11.50;;
42840;SDS011;28491;46.898;7.660;2023-02-28T14:31:29;16.38;;;10.32;;
42840;SDS011;28491;46.898;7.660;2023-02-28T14:34:05;13.13;;;10.10;;
42840;SDS011;28491;46.898;7.660;2023-02-28T14:36:44;13.20;;;9.65;;
42840;SDS011;28491;46.898;7.660;2023-02-28T14:41:40;17.35;;;11.95;;
42840;SDS011;28491;46.898;7.660;2023-02-28T14:44:14;14.95;;;11.15;;
42840;SDS011;28491;46.898;7.660;2023-02-28T14:46:56;15.20;;;10.55;;
42840;SDS011;28491;46.898;7.660;2023-02-28T14:49:32;17.80;;;10.55;;
42840;SDS011;28491;46.898;7.660;2023-02-28T14:54:44;17.17;;;12.98;;
42840;SDS011;28491;46.898;7.660;2023-02-28T15:00:24;16.60;;;11.85;;
42840;SDS011;28491;46.898;7.660;2023-02-28T15:02:46;15.98;;;10.40;;
42840;SDS011;28491;46.898;7.660;2023-02-28T15:07:38;17.08;;;10.05;;
42840;SDS011;28491;46.898;7.660;2023-02-28T15:10:49;15.15;;;10.00;;
42840;SDS011;28491;46.898;7.660;2023-02-28T15:13:00;16.67;;;10.25;;
42840;SDS011;28491;46.898;7.660;2023-02-28T15:15:43;18.58;;;11.90;;
42840;SDS011;28491;46.898;7.660;2023-02-28T15:18:31;17.25;;;11.82;;
42840;SDS011;28491;46.898;7.660;2023-02-28T15:21:17;17.02;;;11.88;;
42840;SDS011;28491;46.898;7.660;2023-02-28T15:26:23;16.15;;;11.27;;
42840;SDS011;28491;46.898;7.660;2023-02-28T15:28:53;16.92;;;12.15;;
42840;SDS011;28491;46.898;7.660;2023-02-28T15:31:28;15.70;;;10.60;;
42840;SDS011;28491;46.898;7.660;2023-02-28T15:33:58;17.48;;;11.25;;
42840;SDS011;28491;46.898;7.660;2023-02-28T15:36:29;19.00;;;10.98;;
42840;SDS011;28491;46.898;7.660;2023-02-28T15:38:58;16.23;;;11.07;;
42840;SDS011;28491;46.898;7.660;2023-02-28T15:41:28;18.52;;;11.13;;
42840;SDS011;28491;46.898;7.660;2023-02-28T15:44:25;17.67;;;11.27;;
42840;SDS011;28491;46.898;7.660;2023-02-28T15:52:28;22.05;;;12.05;;
42840;SDS011;28491;46.898;7.660;2023-02-28T15:55:17;17.98;;;11.68;;
42840;SDS011;28491;46.898;7.660;2023-02-28T15:57:45;22.17;;;11.50;;
42840;SDS011;28491;46.898;7.660;2023-02-28T16:00:16;21.42;;;12.60;;
42840;SDS011;28491;46.898;7.660;2023-02-28T16:02:44;16.33;;;11.35;;
42840;SDS011;28491;46.898;7.660;2023-02-28T16:07:36;19.10;;;13.07;;
42840;SDS011;28491;46.898;7.660;2023-02-28T16:10:08;18.52;;;12.07;;
42840;SDS011;28491;46.898;7.660;2023-02-28T16:12:36;18.45;;;11.95;;
42840;SDS011;28491;46.898;7.660;2023-02-28T16:15:07;18.02;;;12.07;;
42840;SDS011;28491;46.898;7.660;2023-02-28T16:17:42;17.98;;;12.25;;
42840;SDS011;28491;46.898;7.660;2023-02-28T16:20:14;16.80;;;11.25;;
42840;SDS011;28491;46.898;7.660;2023-02-28T16:22:42;17.80;;;12.65;;
42840;SDS011;28491;46.898;7.660;2023-02-28T16:25:11;24.20;;;15.20;;
42840;SDS011;28491;46.898;7.660;2023-02-28T16:27:37;18.65;;;12.35;;
42840;SDS011;28491;46.898;7.660;2023-02-28T16:30:04;19.80;;;12.00;;
42840;SDS011;28491;46.898;7.660;2023-02-28T16:32:32;18.58;;;11.57;;
42840;SDS011;28491;46.898;7.660;2023-02-28T16:35:00;17.58;;;11.75;;
42840;SDS011;28491;46.898;7.660;2023-02-28T16:37:26;18.92;;;12.52;;
42840;SDS011;28491;46.898;7.660;2023-02-28T16:39:52;18.23;;;12.32;;
42840;SDS011;28491;46.898;7.660;2023-02-28T16:42:22;16.13;;;10.98;;
42840;SDS011;28491;46.898;7.660;2023-02-28T16:44:50;18.38;;;13.30;;
42840;SDS011;28491;46.898;7.660;2023-02-28T16:47:16;17.30;;;11.30;;
42840;SDS011;28491;46.898;7.660;2023-02-28T16:49:42;14.40;;;10.70;;
42840;SDS011;28491;46.898;7.660;2023-02-28T16:52:08;16.95;;;10.75;;
42840;SDS011;28491;46.898;7.660;2023-02-28T16:54:34;20.20;;;11.75;;
42840;SDS011;28491;46.898;7.660;2023-02-28T16:57:00;19.23;;;13.07;;
42840;SDS011;28491;46.898;7.660;2023-02-28T16:59:26;17.50;;;11.77;;